Terminal Aerodrome Forecast
Issued by NWS

Home | Current Version | Previous Version | Text Only | Print | Product List | Glossary Off
Versions: 1 2 3 4 5 6 7 8 9 10 11 12 13 14 15 16

000
FTUS45 KGGW 251500 AAA
TAFSDY
TAF AMD
KSDY 251518Z 2515/2612 32011KT P6SM SCT023 OVC035
     FM260000 VRB05KT P6SM BKN150
     FM260600 VRB05KT P6SM VCSH OVC080
      AMD LTD TO CLD VIS AND WIND=

USA.gov is the U.S. government's official web portal to all federal, state and local government web resources and services.